Map

Track Data

SID SEASON NUMBER BASIN SUBBASIN NAME ISO_TIME NATURE LAT LON WMO_WIND WMO_PRES WMO_AGENCY TRACK_TYPE DIST2LAND LANDFALL IFLAG USA_AGENCY USA_ATCF_ID USA_LAT USA_LON USA_RECORD USA_STATUS USA_WIND USA_PRES USA_SSHS USA_R34_NE USA_R34_SE USA_R34_SW USA_R34_NW USA_R50_NE USA_R50_SE USA_R50_SW USA_R50_NW USA_R64_NE USA_R64_SE USA_R64_SW USA_R64_NW USA_POCI USA_ROCI USA_RMW USA_EYE TOKYO_LAT TOKYO_LON TOKYO_GRADE TOKYO_WIND TOKYO_PRES TOKYO_R50_DIR TOKYO_R50_LONG TOKYO_R50_SHORT TOKYO_R30_DIR TOKYO_R30_LONG TOKYO_R30_SHORT TOKYO_LAND CMA_LAT CMA_LON CMA_CAT CMA_WIND CMA_PRES HKO_LAT HKO_LON HKO_CAT HKO_WIND HKO_PRES NEWDELHI_LAT NEWDELHI_LON NEWDELHI_GRADE NEWDELHI_WIND NEWDELHI_PRES NEWDELHI_CI NEWDELHI_DP NEWDELHI_POCI REUNION_LAT REUNION_LON REUNION_TYPE REUNION_WIND REUNION_PRES REUNION_TNUM REUNION_CI REUNION_RMW REUNION_R34_NE REUNION_R34_SE REUNION_R34_SW REUNION_R34_NW REUNION_R50_NE REUNION_R50_SE REUNION_R50_SW REUNION_R50_NW REUNION_R64_NE REUNION_R64_SE REUNION_R64_SW REUNION_R64_NW BOM_LAT BOM_LON BOM_TYPE BOM_WIND BOM_PRES BOM_TNUM BOM_CI BOM_RMW BOM_R34_NE BOM_R34_SE BOM_R34_SW BOM_R34_NW BOM_R50_NE BOM_R50_SE BOM_R50_SW BOM_R50_NW BOM_R64_NE BOM_R64_SE BOM_R64_SW BOM_R64_NW BOM_ROCI BOM_POCI BOM_EYE BOM_POS_METHOD BOM_PRES_METHOD NADI_LAT NADI_LON NADI_CAT NADI_WIND NADI_PRES WELLINGTON_LAT WELLINGTON_LON WELLINGTON_WIND WELLINGTON_PRES DS824_LAT DS824_LON DS824_STAGE DS824_WIND DS824_PRES TD9636_LAT TD9636_LON TD9636_STAGE TD9636_WIND TD9636_PRES TD9635_LAT TD9635_LON TD9635_WIND TD9635_PRES TD9635_ROCI NEUMANN_LAT NEUMANN_LON NEUMANN_CLASS NEUMANN_WIND NEUMANN_PRES MLC_LAT MLC_LON MLC_CLASS MLC_WIND MLC_PRES USA_GUST BOM_GUST BOM_GUST_PER REUNION_GUST REUNION_GUST_PER USA_SEAHGT USA_SEARAD_NE USA_SEARAD_SE USA_SEARAD_SW USA_SEARAD_NW STORM_SPEED STORM_DIR
2000281N11111 2000 94 WP MM NOT_NAMED 2000-10-06 18:00:00 TS 10.8000 110.500 main 174 174 O_____________ jtwc_wp WP282000 10.8000 110.500 TD 30 -1 2 122
2000281N11111 2000 94 WP MM NOT_NAMED 2000-10-06 21:00:00 TS 10.7400 110.603 main 189 189 P_____________ WP282000 10.7400 110.603 TD 30 -1 2 130
2000281N11111 2000 94 WP MM NOT_NAMED 2000-10-07 00:00:00 TS 10.6750 110.650 main 198 198 O_O___________ jtwc_wp WP282000 10.7000 110.700 TD 30 -1 10.6000 110.500 1 29 1002 2 103
2000281N11111 2000 94 WP MM NOT_NAMED 2000-10-07 03:00:00 TS 10.7025 110.765 main 207 201 P_P___________ WP282000 10.6925 110.792 TD 30 -1 10.7225 110.710 1 29 1002 3 64
2000281N11111 2000 94 WP MM NOT_NAMED 2000-10-07 06:00:00 TS 10.8125 110.938 main 211 211 O_OO__________ jtwc_wp WP282000 10.7000 110.900 TD 30 -1 10.8000 110.900 1 29 1002 11.3000 111.200 TD 30 998 4 67
2000281N11111 2000 94 WP MM NOT_NAMED 2000-10-07 09:00:00 TS 10.8410 111.101 main 230 230 P_PP__________ WP282000 10.6925 111.043 TD 30 -1 10.8075 111.058 1 29 1002 11.2050 111.303 TD 30 998 3 84
2000281N11111 2000 94 WP MM NOT_NAMED 2000-10-07 12:00:00 TS 10.8455 111.255 main 250 245 O_OO__________ jtwc_wp WP282000 10.7000 111.200 TD 30 -1 10.8000 111.200 1 29 1002 11.1000 111.400 TD 30 998 3 87
2000281N11111 2000 94 WP MM NOT_NAMED 2000-10-07 15:00:00 TS 10.8567 111.403 main 254 254 P_PP__________ WP282000 10.7425 111.357 TD 30 -1 10.8425 111.357 1 29 1001 10.9850 111.493 TD 30 998 3 86
2000281N11111 2000 94 WP MM NOT_NAMED 2000-10-07 18:00:00 TS 10.8667 111.533 main 264 264 O_OO__________ jtwc_wp WP282000 10.8000 111.500 TD 30 -1 10.9000 111.500 1 29 1000 10.9000 111.600 TD 30 998 2 82
2000281N11111 2000 94 WP MM NOT_NAMED 2000-10-07 21:00:00 TS 10.8925 111.648 main 274 274 P_PP__________ WP282000 10.8500 111.600 TD 30 -1 10.9500 111.600 1 29 1000 10.8775 111.743 TD 30 998 2 74
2000281N11111 2000 94 WP MM NOT_NAMED 2000-10-08 00:00:00 TS 10.9333 111.767 main 294 290 O_OO__________ jtwc_wp WP282000 10.9000 111.700 TD 30 -1 11.0000 111.700 1 29 1000 10.9000 111.900 TD 30 998 3 72
2000281N11111 2000 94 WP MM NOT_NAMED 2000-10-08 03:00:00 TS 10.9758 111.914 main 300 300 P_PP__________ WP282000 10.9425 111.843 TD 32 -1 11.0500 111.843 1 33 998 10.9350 112.058 TD 30 998 3 71
2000281N11111 2000 94 WP MM NOT_NAMED 2000-10-08 06:00:00 TS 11.0333 112.067 main 321 318 O_OO__________ jtwc_wp WP282000 11.0000 112.000 TS 35 0 11.1000 112.000 2 38 997 11.0000 112.200 TD 30 998 3 67
2000281N11111 2000 94 WP MM NOT_NAMED 2000-10-08 09:00:00 TS 11.1042 112.225 main 328 328 P_PP__________ WP282000 11.0850 112.180 TS 35 0 11.1425 112.180 2 38 997 11.0850 112.315 TD 30 998 3 58
2000281N11111 2000 94 WP MM NOT_NAMED 2000-10-08 12:00:00 TS 11.2000 112.333 main 336 336 O_OO__________ jtwc_wp WP282000 11.2000 112.300 TS 35 0 11.2000 112.300 2 38 997 11.2000 112.400 TD 30 998 2 32
2000281N11111 2000 94 WP MM NOT_NAMED 2000-10-08 15:00:00 TS 11.3158 112.357 main 344 328 P_PP__________ WP282000 11.3425 112.302 TS 37 0 11.2775 112.302 2 38 997 11.3275 112.465 TD 30 998 3 354
2000281N11111 2000 94 WP MM NOT_NAMED 2000-10-08 18:00:00 TS 11.4667 112.300 main 328 314 O_OO__________ jtwc_wp WP282000 11.5000 112.200 TS 40 0 11.4000 112.200 2 38 997 11.5000 112.500 TD 30 998 4 333
2000281N11111 2000 94 WP MM NOT_NAMED 2000-10-08 21:00:00 TS 11.6517 112.184 main 310 282 P_PP__________ WP282000 11.6425 112.008 TS 40 0 11.5925 112.023 2 38 997 11.7200 112.522 TD 30 998 5 327
2000281N11111 2000 94 WP MM NOT_NAMED 2000-10-09 00:00:00 TS 11.8667 112.033 main 282 266 O_OO__________ jtwc_wp WP282000 11.8000 111.800 TS 40 0 11.8000 111.800 2 38 997 12.0000 112.500 TD 30 998 5 330
2000281N11111 2000 94 WP MM NOT_NAMED 2000-10-09 03:00:00 TS 12.1025 111.915 main 266 252 P_PP__________ WP282000 12.0000 111.692 TS 40 0 11.9650 111.600 2 36 997 12.3424 112.452 TD 30 998 5 331
2000281N11111 2000 94 WP MM NOT_NAMED 2000-10-09 06:00:00 TS 12.3333 111.767 main 252 228 O_OO__________ jtwc_wp WP282000 12.2000 111.600 TS 40 0 12.1000 111.400 2 34 998 12.7000 112.300 TD 30 998 6 321
2000281N11111 2000 94 WP MM NOT_NAMED 2000-10-09 09:00:00 TS 12.5367 111.553 main 228 195 P_PP__________ WP282000 12.3650 111.465 TS 40 0 12.2075 111.192 2 34 998 13.0375 112.003 TD 30 998 6 309
2000281N11111 2000 94 WP MM NOT_NAMED 2000-10-09 12:00:00 TS 12.7000 111.300 main 195 163 O_OO__________ jtwc_wp WP282000 12.5000 111.300 TS 40 0 12.3000 111.000 2 34 998 13.3000 111.600 TD 30 998 6 299
2000281N11111 2000 94 WP MM NOT_NAMED 2000-10-09 15:00:00 TS 12.8225 111.026 main 163 140 P_PP__________ WP282000 12.6150 111.100 TS 40 0 12.3925 110.850 2 34 998 13.4602 111.127 TD 30 998 6 291
2000281N11111 2000 94 WP MM NOT_NAMED 2000-10-09 18:00:00 TS 12.9000 110.767 main 140 108 O_OO__________ jtwc_wp WP282000 12.7000 110.900 TS 40 0 12.5000 110.700 2 34 998 13.5000 110.700 TD 30 998 5 283
2000281N11111 2000 94 WP MM NOT_NAMED 2000-10-09 21:00:00 TS 12.9308 110.536 main 108 97 P_PP__________ WP282000 12.7350 110.727 TS 35 0 12.6350 110.470 2 31 999 13.4224 110.410 TD 30 998 4 281
2000281N11111 2000 94 WP MM NOT_NAMED 2000-10-10 00:00:00 TS 12.9667 110.400 main 98 98 O_OO__________ jtwc_wp WP282000 12.8000 110.600 TD 30 -1 12.8000 110.300 1 29 1000 13.3000 110.300 TD 30 998 2 320
2000281N11111 2000 94 WP MM NOT_NAMED 2000-10-10 03:00:00 TS 13.0783 110.410 main 100 100 P_PP__________ WP282000 13.0000 110.520 TD 30 -1 13.0150 110.305 1 29 1000 13.2200 110.405 TD 30 998 3 23
2000281N11111 2000 94 WP MM NOT_NAMED 2000-10-10 06:00:00 TS 13.2000 110.500 main 113 113 O_OO__________ jtwc_wp WP282000 13.2000 110.500 TD 30 -1 13.2000 110.400 1 29 1000 13.2000 110.600 TD 30 998 3 41
2000281N11111 2000 94 WP MM NOT_NAMED 2000-10-10 09:00:00 TS 13.2717 110.581 main 127 127 P_PP__________ WP282000 13.2725 110.535 TD 27 -1 13.2650 110.500 1 29 1000 13.2775 110.707 TD 30 998 2 50
2000281N11111 2000 94 WP MM NOT_NAMED 2000-10-10 12:00:00 TS 13.3333 110.667 main 137 137 O_OO__________ jtwc_wp WP282000 13.3000 110.600 TD 25 -1 13.3000 110.600 1 29 1000 13.4000 110.800 TD 30 998 2 46
2000281N11111 2000 94 WP MM NOT_NAMED 2000-10-10 15:00:00 TS 13.4092 110.726 main 141 141 P_PP__________ WP282000 13.3350 110.635 TD 25 -1 13.3925 110.643 1 26 1001 13.5000 110.900 TD 30 998 2 39
2000281N11111 2000 94 WP MM NOT_NAMED 2000-10-10 18:00:00 TS 13.5000 110.800 main 156 156 O_OO__________ jtwc_wp WP282000 13.4000 110.700 TD 25 -1 13.5000 110.700 1 23 1002 13.6000 111.000 TD 30 998 3 42
2000281N11111 2000 94 WP MM NOT_NAMED 2000-10-10 21:00:00 TS 13.6142 110.913 main 170 170 P_PP__________ WP282000 13.5425 110.820 TD 25 -1 13.6000 110.820 1 23 1002 13.7000 111.100 TD 30 998 4 48
2000281N11111 2000 94 WP MM NOT_NAMED 2000-10-11 00:00:00 TS 13.7333 111.067 main 194 194 O_OO__________ jtwc_wp WP282000 13.7000 111.000 TD 25 -1 13.7000 111.000 1 23 1002 13.8000 111.200 TD 30 998 4 58
2000281N11111 2000 94 WP MM NOT_NAMED 2000-10-11 03:00:00 TS 13.8284 111.267 main 216 215 P_PP__________ WP282000 13.7926 111.250 TD 25 -1 13.7926 111.250 1 23 1002 13.9000 111.300 TD 30 998 4 63
2000281N11111 2000 94 WP MM NOT_NAMED 2000-10-11 06:00:00 TS 13.9333 111.467 main 237 237 O_OO__________ jtwc_wp WP282000 13.9000 111.500 TD 25 -1 13.9000 111.500 1 23 1002 14.0000 111.400 TD 30 998 4 53
2000281N11111 2000 94 WP MM NOT_NAMED 2000-10-11 09:00:00 TS 14.0808 111.610 main 249 249 P_PP__________ WP282000 14.1000 111.665 TD 25 -1 14.0425 111.665 1 23 1002 14.1000 111.500 TD 30 998 4 41
2000281N11111 2000 94 WP MM NOT_NAMED 2000-10-11 12:00:00 TS 14.2333 111.733 main 261 261 O_OO__________ jtwc_wp WP282000 14.3000 111.800 TD 25 -1 14.2000 111.800 1 23 1002 14.2000 111.600 TD 30 998 4 43
2000281N11111 2000 94 WP MM NOT_NAMED 2000-10-11 15:00:00 TS 14.3425 111.859 main 284 284 P_PP__________ WP282000 14.3850 111.943 TD 25 -1 14.3425 111.935 1 23 1002 14.3000 111.700 TD 30 998 3 48
2000281N11111 2000 94 WP MM NOT_NAMED 2000-10-11 18:00:00 TS 14.4667 112.000 main 298 298 O_OO__________ jtwc_wp WP282000 14.5000 112.100 TD 25 -1 14.5000 112.100 1 23 1002 14.4000 111.800 TD 30 998 4 47
2000281N11111 2000 94 WP MM NOT_NAMED 2000-10-11 21:00:00 TS 14.6392 112.183 main 322 322 P_PP__________ WP282000 14.7700 112.307 TD 27 -1 14.6626 112.350 1 26 1001 14.4850 111.893 TD 30 998 5 40
2000281N11111 2000 94 WP MM NOT_NAMED 2000-10-12 00:00:00 TS 14.8636 112.345 main 342 342 O_OO__________ jtwc_wp WP282000 15.1000 112.500 TD 30 -1 14.9000 112.600 1 29 1000 14.6000 112.000 TD 30 998 5 30
2000281N11111 2000 94 WP MM NOT_NAMED 2000-10-12 03:00:00 TS 15.1085 112.461 main 368 368 P_PP__________ WP282000 15.3775 112.615 TD 30 -1 15.2625 112.775 1 29 999 14.7625 112.150 TD 30 998 6 20
2000281N11111 2000 94 WP MM NOT_NAMED 2000-10-12 06:00:00 TS 15.3889 112.544 main 373 373 O_OO__________ jtwc_wp WP282000 15.7000 112.700 TD 30 -1 15.7000 112.900 1 29 998 15.0000 112.300 TD 30 998 6 13
2000281N11111 2000 94 WP MM NOT_NAMED 2000-10-12 09:00:00 TS 15.7313 112.615 main 392 379 P__P__________ WP282000 16.1425 112.807 TD 30 -1 1 15.3200 112.422 TD 30 998 8 11
2000281N11111 2000 94 WP MM NOT_NAMED 2000-10-12 12:00:00 TS 16.1500 112.700 main 371 354 O__O__________ jtwc_wp WP282000 16.6000 112.900 TD 30 -1 15.7000 112.500 TD 30 998 8 10
2000281N11111 2000 94 WP MM NOT_NAMED 2000-10-12 15:00:00 TS 16.5475 112.770 main 354 323 P__P__________ WP282000 16.9949 113.002 TD 30 -1 16.1000 112.537 TD 30 998 8 2
2000281N11111 2000 94 WP MM NOT_NAMED 2000-10-12 18:00:00 TS 16.9000 112.750 main 323 285 O__O__________ jtwc_wp WP282000 17.3000 113.000 TD 30 -1 16.5000 112.500 TD 30 998 7 346
2000281N11111 2000 94 WP MM NOT_NAMED 2000-10-12 21:00:00 TS 17.1912 112.606 main 285 254 P__P__________ WP282000 17.5025 112.818 TD 32 -1 16.8799 112.395 TD 30 998 6 323
2000281N11111 2000 94 WP MM NOT_NAMED 2000-10-13 00:00:00 TS 17.4000 112.350 main 254 215 O__O__________ jtwc_wp WP282000 17.6000 112.500 TS 35 0 17.2000 112.200 TD 30 998 7 301
2000281N11111 2000 94 WP MM NOT_NAMED 2000-10-13 03:00:00 TS 17.5338 112.015 main 215 184 P__P__________ WP282000 17.6226 112.107 TS 35 0 17.4450 111.923 TD 30 998 7 287
2000281N11111 2000 94 WP MM NOT_NAMED 2000-10-13 06:00:00 TS 17.6000 111.650 main 184 155 O__O__________ jtwc_wp WP282000 17.6000 111.700 TS 35 0 17.6000 111.600 TD 30 998 7 280
2000281N11111 2000 94 WP MM NOT_NAMED 2000-10-13 09:00:00 TS 17.6437 111.331 main 155 143 P__P__________ WP282000 17.6074 111.370 TS 30 -1 17.6800 111.292 TD 30 998 6 274
2000281N11111 2000 94 WP MM NOT_NAMED 2000-10-13 12:00:00 TS 17.6429 111.057 main 143 123 O__O__________ jtwc_wp WP282000 17.6000 111.100 TD 25 -1 17.7000 111.000 TD 30 998 5 265
2000281N11111 2000 94 WP MM NOT_NAMED 2000-10-13 15:00:00 TS 17.6008 110.832 main 123 116 P__P__________ WP282000 17.5499 110.877 TD 22 -1 17.7025 110.740 TD 30 998 4 255
2000281N11111 2000 94 WP MM NOT_NAMED 2000-10-13 18:00:00 TS 17.5400 110.660 main 125 119 O__O__________ jtwc_wp WP282000 17.5000 110.700 TD 20 -1 17.7000 110.500 TD 30 998 3 249
2000281N11111 2000 94 WP MM NOT_NAMED 2000-10-13 21:00:00 TS 17.5000 110.550 main 119 107 P_____________ WP282000 17.5000 110.550 TD 20 -1 TD 3 261
2000281N11111 2000 94 WP MM NOT_NAMED 2000-10-14 00:00:00 TS 17.5000 110.400 main 107 94 O_____________ jtwc_wp WP282000 17.5000 110.400 TD 20 -1 3 262
2000281N11111 2000 94 WP MM NOT_NAMED 2000-10-14 03:00:00 TS 17.4500 110.200 main 94 94 P_____________ WP282000 17.4500 110.200 TD 20 -1 4 255
2000281N11111 2000 94 WP MM NOT_NAMED 2000-10-14 06:00:00 TS 17.4000 110.000 main 94 90 O_____________ jtwc_wp WP282000 17.4000 110.000 TD 20 -1 4 261
2000281N11111 2000 94 WP MM NOT_NAMED 2000-10-14 09:00:00 TS 17.3925 109.835 main 90 89 P_____________ WP282000 17.3925 109.835 TD 20 -1 3 270
2000281N11111 2000 94 WP MM NOT_NAMED 2000-10-14 12:00:00 TS 17.4000 109.700 main 89 89 O_____________ jtwc_wp WP282000 17.4000 109.700 TD 20 -1 2 272
2000281N11111 2000 94 WP MM NOT_NAMED 2000-10-14 15:00:00 TS 17.4025 109.592 main 89 89 P_____________ WP282000 17.4025 109.592 TD 20 -1 2 270
2000281N11111 2000 94 WP MM NOT_NAMED 2000-10-14 18:00:00 TS 17.4000 109.500 main 89 O_____________ jtwc_wp WP282000 17.4000 109.500 TD 20 -1 2 268

Digital Typhoon Data and Search

About IBTrACS Database

This database is a web-friendly format of International Best Track Archive for Climate Stewardship (IBTrACS), a global best track data archive curated by NOAA dating back to 1842.

Updated: 2021-12-01